Back to Top
Banner_Quays_at_Mast_2020.jpeg
Banner_VERITY.jpeg
Banner_P42_Kinsale_2004.jpeg
Superyacht_SCOUT.jpg
Kinsale_Trawlers_Banner.jpeg
previous arrow
next arrow

Port Arrivals Report (AIS)

This report is generated from collected AIS (Automated Identification System) signals from vessels entering port.

IMO MMSI Class Flag Vessel Name Vessel type Nav Status Destination Call Sign Latitude Longitude Speed (kts) Course (T) Draught (m) LOA (m) Beam (m) Timestamp
0 250106680 B IE CIRRUS SAILING. - EI7621 51.6878 -8.49471 4.7 356.9 0 10 4 2024-06-02 12:43:33
0 211753930 B DE ALLEGRO SAILING. - DA5193 51.6882 -8.499 5.7 351.2 0 11 3 2024-06-02 11:58:19
0 250006727 B IE CHANCER Pleasure craft - EIA2005 51.6874 -8.49993 7.4 351.9 0 17 3 2024-06-02 11:20:14
0 250004156 A IE F/V BREIZH ARVOR II FISHING. - KINSALE EIRX3 51.7017 -8.51736 0 262.5 3.2 23 6 2024-06-01 20:24:16
0 250006519 B IE SIPADAN Pleasure craft - EI-ZG-8 51.6877 -8.49918 3.1 353.9 0 11 5 2024-06-01 18:40:19
0 250004509 A IE THE MALLET DREDGING / UNDERWATER Ops. Moored KINSALE EISN9 51.6884 -8.4985 18.6 356 0 18 7 2024-06-01 18:39:35
0 250005517 B IE HAFOD Pleasure craft - EI-VE-3 51.6881 -8.49992 5 347.1 0 10 3 2024-06-01 18:23:47
0 250001825 B IE OCEAN RANGER Pleasure craft - EIHP5 51.6907 -8.50218 16.1 346.5 0 12 5 2024-06-01 18:18:18
0 250013855 B IE FISCALA SAILING. - EIA2322 51.6874 -8.49865 6.5 352.2 0 15 4 2024-06-01 18:10:36
0 367796140 B US - - 51.6884 -8.49636 5 351.3 0 0 0 2024-06-01 17:44:19
0 250006715 B IE TOWARD PADUA SAILING. - EIZZ8 51.6874 -8.49795 4.4 343.2 0 14 4 2024-06-01 17:38:54
0 250103750 B IE HARPY DREDGING / UNDERWATER Ops. - EI7410 51.6883 -8.50176 8.7 344.3 0 13 4 2024-06-01 17:35:54
0 250006035 B IE VALFREYA SAILING. - EI-XB-6 51.6885 -8.49661 3.6 337.6 0 10 3 2024-06-01 17:12:38
0 232048803 B GB VIRGINIA Pleasure craft - MNZI3 51.6882 -8.49751 13 350.7 0 0 0 2024-06-01 17:08:37
0 250013607 B IE DRUMLIN SAILING. - EIA2063 51.6873 -8.49917 4.5 354.4 0 10 4 2024-06-01 16:54:18
0 235075513 B GB ARC ANGEL SAILING. - EI-VL-3 51.6885 -8.49984 5.6 348.5 0 12 4 2024-06-01 16:12:26
0 250003878 B IE LADY BELLE SAILING. - EIRG8 51.6885 -8.49949 5.4 346.7 0 12 4 2024-06-01 15:35:25
0 250005171 B IE BRAVEHEART SAILING. - EI-UA-8 51.6872 -8.49929 4.6 352.9 0 8 2 2024-06-01 15:26:13
0 235057731 B GB WINDBORNE SAILING. - MWXW3 51.6877 -8.49949 4.9 344.2 0 12 4 2024-06-01 15:22:20
0 250013741 B IE ENIGMA SAILING. - EIA2208 51.6885 -8.49854 6.6 340.9 0 12 4 2024-06-01 13:47:59